Thunder radar more information blitzortung!


Radar de pluja more information rain snow radar


Visita la nostra xarxa de llocs de meteo:

Template documentation
and downloads

And another site



No particular awareness of the weather is required.    There are no Weather-warnings

Pagina Historial Weather Underground text

Diari Resum Agost 27, 2017 Unitats:  Mètric    Imperial   Tant
« Previous Dia
SegĂźent Dia »
Diari Setmana Mensual Anual Personalitzada
  Maxima: Minima: Media:
Temperatura: -17.8 °C -6.1 °C -2.9 °C
Punt de rosada: -17.8 °C -8.4 °C -7 °C
Humitat: Humidity % 49 % 65 %
Wind Speed: 0 km/h 0 km/h 11.9 km/h
RĂ fegues de vent: 0 km/h - -
Vent:- - SSE
Pression baro: 0 hPa 34293.4 hPa -
Precipitacions: 0 mm    
Historical Graphs
 
 
Dades de taula per Agost 27, 2017
Temps Temperatura Punt de rosada Pression baro Vent Wind Speed RĂ fegues de vent Humitat Rainfall Rate (Hourly)
-17.8 °C -17.8 °C 0 hPa Calm     Humidity % 0 mm
00:03 -4.3 °C -6.9 °C 34361.1 hPa East 6 km/h 6 km/h 75 % 0 mm
00:05 -5.3 °C -7.2 °C 34327.3 hPa Calm   5.1 km/h 81 % 0 mm
00:08 -4.3 °C -6.9 °C 34361.1 hPa East 6.8 km/h 6.8 km/h 75 % 0 mm
00:15 -5.3 °C -7.2 °C 34327.3 hPa Calm     81 % 0 mm
00:25 -5.3 °C -7.2 °C 34327.3 hPa Calm   2.6 km/h 81 % 0 mm
00:35 -5.3 °C -7.1 °C 34361.1 hPa Calm     82 % 0 mm
00:45 -5.3 °C -7.1 °C 34361.1 hPa WNW 2.6 km/h 2.6 km/h 82 % 0 mm
00:55 -5.3 °C -7.1 °C 34361.1 hPa NNW 2.6 km/h 5.1 km/h 82 % 0 mm
01:05 -5.4 °C -7.3 °C 34327.3 hPa NNE 2.6 km/h 7.7 km/h 81 % 0 mm
01:15 -5.6 °C -7.4 °C 34327.3 hPa Calm   5.1 km/h 81 % 0 mm
01:25 -5.7 °C -7.4 °C 34327.3 hPa Calm     82 % 0 mm
01:35 -5.7 °C -7.4 °C 34361.1 hPa Calm     82 % 0 mm
01:45 -5.7 °C -7.5 °C 34361.1 hPa SW 2.6 km/h 5.1 km/h 82 % 0 mm
01:55 -5.7 °C -7.4 °C 34361.1 hPa Calm   2.6 km/h 83 % 0 mm
02:05 -5.8 °C -7.3 °C 34327.3 hPa Calm     84 % 0 mm
02:15 -5.8 °C -7.4 °C 34327.3 hPa West 2.6 km/h 2.6 km/h 83 % 0 mm
02:25 -5.8 °C -7.3 °C 34327.3 hPa Calm   5.1 km/h 84 % 0 mm
02:35 -5.8 °C -7.3 °C 34361.1 hPa NW 2.6 km/h   84 % 0 mm
02:45 -6 °C -7.7 °C 34361.1 hPa NNW 2.6 km/h 5.1 km/h 83 % 0 mm
02:55 -6 °C -7.6 °C 34361.1 hPa East 2.6 km/h 5.1 km/h 84 % 0 mm
03:05 -6.1 °C -7.6 °C 34361.1 hPa Calm     84 % 0 mm
03:15 -6.1 °C -7.5 °C 34361.1 hPa ENE 2.6 km/h 5.1 km/h 85 % 0 mm
03:25 -6.1 °C -7.5 °C 34361.1 hPa ENE 2.6 km/h 5.1 km/h 85 % 0 mm
03:35 -6.1 °C -7.6 °C 34327.3 hPa Calm   7.7 km/h 85 % 0 mm
03:45 -6.1 °C -7.5 °C 34327.3 hPa Calm   5.1 km/h 85 % 0 mm
03:55 -6.1 °C -7.5 °C 34327.3 hPa Calm   5.1 km/h 85 % 0 mm
04:05 -5.9 °C -7.3 °C 34327.3 hPa Calm   5.1 km/h 85 % 0 mm
04:15 -5.6 °C -7 °C 34361.1 hPa Calm   2.6 km/h 86 % 0 mm
04:25 -5.6 °C -7.1 °C 34361.1 hPa NE 2.6 km/h 7.7 km/h 85 % 0 mm
04:35 -5.6 °C -7.1 °C 34361.1 hPa ENE 2.6 km/h 5.1 km/h 84 % 0 mm
04:45 -5.4 °C -7 °C 34361.1 hPa NE 2.6 km/h 5.1 km/h 84 % 0 mm
04:55 -5.4 °C -7.1 °C 34361.1 hPa NE 7.7 km/h 7.7 km/h 83 % 0 mm
05:05 -5.3 °C -7 °C 34361.1 hPa NE 5.1 km/h 7.7 km/h 83 % 0 mm
10:09 -4.2 °C -6.7 °C 34361.1 hPa East 15 km/h 15 km/h 76 % 0 mm
10:12 -4.1 °C -6.6 °C 34395 hPa East 6.3 km/h 7.6 km/h 76 % 0 mm
10:17 -4.1 °C -6.6 °C 34395 hPa East 11.9 km/h 11.9 km/h 76 % 0 mm
10:22 -3.9 °C -6.4 °C 34395 hPa NNE 11.9 km/h 11.9 km/h 76 % 0 mm
10:27 -3.9 °C -6.5 °C 34395 hPa NE 11.9 km/h 11.9 km/h 75 % 0 mm
10:32 -3.7 °C -6.3 °C 34395 hPa NNE 9 km/h 9 km/h 75 % 0 mm
10:37 -3.5 °C -6.3 °C 34395 hPa ESE 15 km/h 15 km/h 74 % 0 mm
10:42 -3.5 °C -6.4 °C 34395 hPa East 15 km/h 15 km/h 73 % 0 mm
10:47 -3.5 °C -6.4 °C 34395 hPa ENE 20.9 km/h 20.9 km/h 73 % 0 mm
10:52 -3.4 °C -6.4 °C 34395 hPa ESE 17.9 km/h 17.9 km/h 72 % 0 mm
10:57 -3.1 °C -6.1 °C 34395 hPa ESE 12.7 km/h 12.7 km/h 72 % 0 mm
11:02 -2.8 °C -6.1 °C 34395 hPa East 15 km/h 15 km/h 70 % 0 mm
11:07 -2.7 °C -6.2 °C 34395 hPa ESE 11.9 km/h 11.9 km/h 69 % 0 mm
11:12 -2.6 °C -6.3 °C 34395 hPa SE 12.7 km/h 12.7 km/h 67 % 0 mm
11:17 -2.7 °C -6.4 °C 34395 hPa South 20.9 km/h 20.9 km/h 67 % 0 mm
11:22 -2.3 °C -6.1 °C 34395 hPa ENE 11.9 km/h 11.9 km/h 67 % 0 mm
11:27 -2.6 °C -6.3 °C 34395 hPa ESE 9 km/h 9 km/h 67 % 0 mm
11:32 -2.4 °C -6.2 °C 34395 hPa ESE 20.9 km/h 20.9 km/h 66 % 0 mm
11:37 -2.5 °C -6.3 °C 34395 hPa East 16.1 km/h 16.1 km/h 66 % 0 mm
11:42 -2.4 °C -6.4 °C 34395 hPa NE 15 km/h 15 km/h 65 % 0 mm
11:47 -2.4 °C -6.4 °C 34395 hPa ENE 9 km/h 9 km/h 65 % 0 mm
11:52 -2.2 °C -6.3 °C 34395 hPa East 15 km/h 15 km/h 64 % 0 mm
11:57 -2.3 °C -6.3 °C 34395 hPa ESE 15 km/h 15 km/h 65 % 0 mm
12:02 -2.1 °C -6.2 °C 34395 hPa ENE 11.9 km/h 11.9 km/h 64 % 0 mm
12:07 -1.9 °C -6.1 °C 34395 hPa NE 16.1 km/h 16.1 km/h 64 % 0 mm
12:12 -1.9 °C -6.2 °C 34395 hPa ESE 15 km/h 15 km/h 63 % 0 mm
12:22 -1.7 °C -6.1 °C 34395 hPa NE 15 km/h 15.3 km/h 62 % 0 mm
12:27 -1.8 °C -6.2 °C 34361.1 hPa ENE 15 km/h 15 km/h 63 % 0 mm
12:32 -1.9 °C -6.3 °C 34361.1 hPa SE 11.9 km/h 11.9 km/h 62 % 0 mm
12:37 -1.4 °C -6.2 °C 34361.1 hPa East 17.9 km/h 17.9 km/h 60 % 0 mm
12:42 -1.7 °C -6.3 °C 34361.1 hPa East 18.3 km/h 18.3 km/h 61 % 0 mm
12:47 -1.7 °C -6.3 °C 34361.1 hPa East 20.9 km/h 20.9 km/h 61 % 0 mm
12:52 -1.6 °C -6.4 °C 34361.1 hPa East 15 km/h 15 km/h 59 % 0 mm
12:57 -1.6 °C -6.3 °C 34361.1 hPa ESE 11.9 km/h 11.9 km/h 60 % 0 mm
13:02 -1.7 °C -6.4 °C 34361.1 hPa NE 15 km/h 15 km/h 60 % 0 mm
13:07 -1.7 °C -6.4 °C 34361.1 hPa East 6.3 km/h 6.8 km/h 60 % 0 mm
13:12 -1.8 °C -6.3 °C 34361.1 hPa ENE 15 km/h 15 km/h 61 % 0 mm
13:17 -1.8 °C -6.4 °C 34361.1 hPa East 14.5 km/h 14.5 km/h 61 % 0 mm
13:22 -1.7 °C -6.4 °C 34361.1 hPa ENE 9 km/h 9 km/h 60 % 0 mm
13:27 -1.3 °C -6.2 °C 34361.1 hPa ESE 15 km/h 15 km/h 59 % 0 mm
13:32 -1.4 °C -6.4 °C 34361.1 hPa ESE 26.9 km/h 26.9 km/h 58 % 0 mm
13:37 -1.4 °C -6.3 °C 34361.1 hPa ENE 11.9 km/h 11.9 km/h 59 % 0 mm
13:42 -1.1 °C -6.2 °C 34361.1 hPa ESE 8.5 km/h 8.5 km/h 58 % 0 mm
13:47 -1.1 °C -6.2 °C 34361.1 hPa ESE 11.9 km/h 11.9 km/h 58 % 0 mm
13:52 -0.8 °C -6.1 °C 34361.1 hPa NNE 15 km/h 15 km/h 57 % 0 mm
13:57 -0.8 °C -6.1 °C 34361.1 hPa ENE 9 km/h 9 km/h 57 % 0 mm
14:02 -0.6 °C -6.1 °C 34361.1 hPa ESE 9 km/h 9 km/h 56 % 0 mm
14:07 -0.3 °C -6.1 °C 34361.1 hPa East 11.9 km/h 11.9 km/h 54 % 0 mm
14:12 -0.6 °C -6.5 °C 34327.3 hPa ESE 9 km/h 9 km/h 53 % 0 mm
14:17 -0.6 °C -6.4 °C 34327.3 hPa ESE 15 km/h 15 km/h 54 % 0 mm
14:22 -0.4 °C -6.2 °C 34327.3 hPa ENE 11.9 km/h 11.9 km/h 54 % 0 mm
14:27 -0.8 °C -6.7 °C 34327.3 hPa ESE 20.9 km/h 20.9 km/h 53 % 0 mm
14:32 -0.4 °C -6.3 °C 34327.3 hPa ENE 9 km/h 9 km/h 53 % 0 mm
14:37 -0.4 °C -6.3 °C 34327.3 hPa ESE 9.8 km/h 9.8 km/h 53 % 0 mm
14:42 -0.4 °C -6.7 °C 34327.3 hPa ENE 17.9 km/h 17.9 km/h 51 % 0 mm
14:47 -0.4 °C -6.7 °C 34327.3 hPa ESE 23.8 km/h 23.8 km/h 51 % 0 mm
14:52 -0.4 °C -6.5 °C 34327.3 hPa ESE 20.9 km/h 20.9 km/h 52 % 0 mm
14:57 -0.4 °C -6.7 °C 34327.3 hPa ENE 20.9 km/h 20.9 km/h 51 % 0 mm
15:02 -0.3 °C -6.8 °C 34327.3 hPa SE 20.9 km/h 20.9 km/h 50 % 0 mm
15:07 -0.3 °C -6.8 °C 34327.3 hPa ENE 20.9 km/h 20.9 km/h 50 % 0 mm
15:12 -0.2 °C -6.7 °C 34327.3 hPa NE 20.9 km/h 20.9 km/h 50 % 0 mm
15:17 -0.3 °C -6.9 °C 34327.3 hPa ESE 23.8 km/h 23.8 km/h 49 % 0 mm
15:22 -0.2 °C -6.7 °C 34327.3 hPa ESE 20.9 km/h 20.9 km/h 50 % 0 mm
15:27 -0.2 °C -6.7 °C 34327.3 hPa South 22.5 km/h 22.5 km/h 50 % 0 mm
15:32 -0.3 °C -7 °C 34327.3 hPa East 20.9 km/h 20.9 km/h 49 % 0 mm
15:37 -0.1 °C -6.8 °C 34327.3 hPa ESE 17.9 km/h 17.9 km/h 49 % 0 mm
15:42 -0.3 °C -6.9 °C 34327.3 hPa SE 20.9 km/h 20.9 km/h 49 % 0 mm
15:47 -0.3 °C -6.9 °C 34327.3 hPa ESE 20.9 km/h 20.9 km/h 49 % 0 mm
15:52 -0.2 °C -6.8 °C 34327.3 hPa SE 16.1 km/h 16.1 km/h 49 % 0 mm
15:57 -0.3 °C -6.9 °C 34327.3 hPa NE 20.9 km/h 20.9 km/h 49 % 0 mm
16:02 -0.3 °C -6.8 °C 34327.3 hPa ESE 20.3 km/h 20.3 km/h 50 % 0 mm
16:07 -0.6 °C -6.9 °C 34327.3 hPa East 20.9 km/h 20.9 km/h 51 % 0 mm
16:12 -0.7 °C -6.8 °C 34293.4 hPa ENE 17.9 km/h 17.9 km/h 52 % 0 mm
16:17 -0.8 °C -6.9 °C 34293.4 hPa ENE 27.2 km/h 27.2 km/h 52 % 0 mm
16:22 -1.1 °C -7 °C 34293.4 hPa ESE 23.8 km/h 23.8 km/h 53 % 0 mm
16:27 -1.2 °C -6.9 °C 34293.4 hPa SE 18.3 km/h 18.3 km/h 54 % 0 mm
16:32 -1.1 °C -6.8 °C 34293.4 hPa ESE 20.9 km/h 20.9 km/h 54 % 0 mm
16:37 -1.2 °C -6.9 °C 34293.4 hPa ESE 20.9 km/h 20.9 km/h 54 % 0 mm
16:42 -1.1 °C -6.7 °C 34327.3 hPa East 23.8 km/h 23.8 km/h 55 % 0 mm
16:47 -1.1 °C -6.7 °C 34327.3 hPa SSE 26.9 km/h 26.9 km/h 55 % 0 mm
16:52 -1.1 °C -6.5 °C 34327.3 hPa East 26.9 km/h 26.9 km/h 56 % 0 mm
16:57 -0.9 °C -6.5 °C 34327.3 hPa ESE 17.9 km/h 17.9 km/h 55 % 0 mm
17:02 -0.7 °C -6.3 °C 34327.3 hPa SW 9 km/h 9 km/h 55 % 0 mm
17:07 -0.6 °C -6.2 °C 34327.3 hPa WSW 15 km/h 15 km/h 55 % 0 mm
17:12 -0.7 °C -6.2 °C 34327.3 hPa SW 16.1 km/h 16.1 km/h 56 % 0 mm
17:17 -0.9 °C -6.3 °C 34327.3 hPa SW 16.6 km/h 16.6 km/h 56 % 0 mm
17:22 -1.1 °C -6.3 °C 34327.3 hPa South 15.3 km/h 15.3 km/h 57 % 0 mm
17:27 -1.1 °C -6.3 °C 34327.3 hPa SW 17.9 km/h 17.9 km/h 57 % 0 mm
17:32 -0.9 °C -6.2 °C 34327.3 hPa SSW 17.9 km/h 17.9 km/h 57 % 0 mm
17:37 -1.2 °C -6.4 °C 34327.3 hPa SW 35.7 km/h 35.7 km/h 57 % 0 mm
17:38 -1.2 °C -6.4 °C 34327.3 hPa SW 23.8 km/h 23.8 km/h 57 % 0 mm
17:43 -1.4 °C -6.4 °C 34327.3 hPa SW 20.3 km/h 20.3 km/h 58 % 0 mm
17:48 -1.4 °C -6.5 °C 34327.3 hPa SW 23.8 km/h 23.8 km/h 58 % 0 mm
17:53 -1.3 °C -6.4 °C 34327.3 hPa SW 27.7 km/h 27.7 km/h 58 % 0 mm
17:58 -1.4 °C -6.5 °C 34327.3 hPa SW 20.9 km/h 20.9 km/h 58 % 0 mm
18:03 -1.7 °C -6.7 °C 34327.3 hPa SW 23.8 km/h 23.8 km/h 58 % 0 mm
18:08 -1.7 °C -6.5 °C 34327.3 hPa SSW 20.9 km/h 20.9 km/h 60 % 0 mm
18:13 -1.6 °C -6.5 °C 34327.3 hPa SW 23.8 km/h 23.8 km/h 59 % 0 mm
18:18 -1.8 °C -6.5 °C 34327.3 hPa West 32.8 km/h 32.8 km/h 60 % 0 mm
18:23 -1.9 °C -6.5 °C 34327.3 hPa SW 15 km/h 15 km/h 61 % 0 mm
18:28 -1.9 °C -6.6 °C 34293.4 hPa SW 15 km/h 15 km/h 61 % 0 mm
18:33 -2.2 °C -6.8 °C 34293.4 hPa WSW 26.9 km/h 26.9 km/h 61 % 0 mm
18:38 -2.4 °C -6.8 °C 34293.4 hPa SW 29.8 km/h 29.8 km/h 62 % 0 mm
18:43 -2.6 °C -6.8 °C 34327.3 hPa West 26.9 km/h 26.9 km/h 63 % 0 mm
18:48 -2.8 °C -7.1 °C 34327.3 hPa SW 20.9 km/h 20.9 km/h 63 % 0 mm
18:53 -2.9 °C -7 °C 34327.3 hPa SW 20.9 km/h 20.9 km/h 64 % 0 mm
18:58 -2.9 °C -6.9 °C 34327.3 hPa West 15 km/h 15 km/h 65 % 0 mm
19:03 -2.9 °C -6.9 °C 34327.3 hPa WSW 15 km/h 15 km/h 65 % 0 mm
19:08 -3.1 °C -6.9 °C 34327.3 hPa SW 26.9 km/h 26.9 km/h 66 % 0 mm
19:13 -3.1 °C -6.9 °C 34327.3 hPa SSW 26.9 km/h 26.9 km/h 66 % 0 mm
19:18 -3.2 °C -7 °C 34327.3 hPa SSW 15 km/h 15 km/h 66 % 0 mm
19:23 -3.2 °C -7 °C 34327.3 hPa SSW 17.9 km/h 17.9 km/h 66 % 0 mm
19:28 -3.2 °C -7.1 °C 34293.4 hPa SW 25.4 km/h 25.4 km/h 66 % 0 mm
19:33 -3.3 °C -6.9 °C 34293.4 hPa SW 9 km/h 9 km/h 67 % 0 mm
19:38 -3.3 °C -6.9 °C 34293.4 hPa WSW 9 km/h 9 km/h 67 % 0 mm
19:43 -3.3 °C -6.9 °C 34327.3 hPa SW 9 km/h 9 km/h 67 % 0 mm
19:48 -3.3 °C -6.9 °C 34327.3 hPa WSW 9 km/h 9 km/h 67 % 0 mm
19:50 -3.3 °C -7 °C 34327.3 hPa South 11.9 km/h 11.9 km/h 67 % 0 mm
19:55 -3.3 °C -6.9 °C 34327.3 hPa SSW 9 km/h 9 km/h 67 % 0 mm
20:00 -3.3 °C -6.9 °C 34327.3 hPa WSW 6 km/h 6 km/h 67 % 0 mm
20:05 -3.3 °C -6.9 °C 34327.3 hPa ESE 3.1 km/h   67 % 0 mm
20:10 -3.3 °C -6.9 °C 34327.3 hPa West 6 km/h 6 km/h 67 % 0 mm
20:15 -3.3 °C -6.9 °C 34327.3 hPa West 3.1 km/h   67 % 0 mm
20:16 -3.3 °C -6.9 °C 34327.3 hPa West 3.1 km/h   67 % 0 mm
20:21 -3.3 °C -6.9 °C 34327.3 hPa NNE 4.2 km/h 4.2 km/h 67 % 0 mm
20:26 -3.3 °C -6.9 °C 34361.1 hPa SW 6 km/h 6 km/h 67 % 0 mm
20:31 -3.4 °C -7.1 °C 34361.1 hPa West 9 km/h 9 km/h 67 % 0 mm
20:36 -3.4 °C -7.1 °C 34361.1 hPa WNW 11.9 km/h 11.9 km/h 67 % 0 mm
20:41 -3.4 °C -7.1 °C 34293.4 hPa South 9 km/h 9 km/h 67 % 0 mm
20:46 -3.2 °C -7.1 °C 34293.4 hPa West 9 km/h 9 km/h 66 % 0 mm
20:51 -3.1 °C -7.1 °C 34293.4 hPa SSW 6 km/h   65 % 0 mm
20:56 -3.1 °C -7.1 °C 34327.3 hPa Calm     65 % 0 mm
21:01 -3 °C -7.1 °C 34327.3 hPa SE 4.2 km/h 4.2 km/h 64 % 0 mm
21:06 -3.1 °C -7.2 °C 34327.3 hPa SW 5.1 km/h   64 % 0 mm
21:11 -3.2 °C -7.1 °C 34327.3 hPa WSW 6 km/h 6 km/h 65 % 0 mm
21:16 -3.3 °C -7.2 °C 34327.3 hPa WSW 2.3 km/h   65 % 0 mm
21:21 -3.4 °C -7.3 °C 34327.3 hPa SSW 9 km/h 9 km/h 65 % 0 mm
21:26 -3.6 °C -7.3 °C 34327.3 hPa WSW 6 km/h 6 km/h 66 % 0 mm
21:31 -3.6 °C -7.3 °C 34327.3 hPa WSW 6 km/h 6 km/h 67 % 0 mm
21:36 -3.7 °C -7.4 °C 34327.3 hPa SSE 6 km/h 6 km/h 67 % 0 mm
21:41 -3.8 °C -7.3 °C 34327.3 hPa West 6 km/h 6 km/h 68 % 0 mm
21:46 -3.8 °C -7.4 °C 34327.3 hPa WSW 4.2 km/h 4.2 km/h 67 % 0 mm
21:51 -3.8 °C -7.3 °C 34327.3 hPa SSW 5.1 km/h   68 % 0 mm
21:56 -3.8 °C -7.4 °C 34327.3 hPa West 3.7 km/h   67 % 0 mm
22:01 -3.7 °C -7.5 °C 34327.3 hPa WSW 6.3 km/h 6.3 km/h 66 % 0 mm
22:06 -3.7 °C -7.7 °C 34327.3 hPa West 6 km/h 6 km/h 65 % 0 mm
22:11 -3.7 °C -7.6 °C 34327.3 hPa SW 6 km/h 6 km/h 65 % 0 mm
22:16 -3.7 °C -7.5 °C 34327.3 hPa SW 3.1 km/h   66 % 0 mm
22:21 -3.8 °C -7.7 °C 34327.3 hPa SW 6 km/h 6 km/h 65 % 0 mm
22:26 -3.8 °C -7.9 °C 34327.3 hPa SW 6 km/h 6 km/h 64 % 0 mm
22:31 -3.9 °C -7.9 °C 34327.3 hPa SW 3.1 km/h 3.1 km/h 64 % 0 mm
22:36 -3.9 °C -7.9 °C 34327.3 hPa SW 6 km/h 6 km/h 64 % 0 mm
22:41 -3.9 °C -8 °C 34327.3 hPa WSW 6 km/h 6.3 km/h 64 % 0 mm
22:46 -3.9 °C -8.1 °C 34327.3 hPa WSW 3.7 km/h 5.1 km/h 63 % 0 mm
22:51 -4 °C -8.2 °C 34327.3 hPa SW 9 km/h 9 km/h 63 % 0 mm
22:56 -4 °C -8.2 °C 34327.3 hPa West 6 km/h 6 km/h 63 % 0 mm
23:01 -4.1 °C -8.4 °C 34327.3 hPa SW 3.1 km/h 3.1 km/h 62 % 0 mm
23:06 -4.1 °C -8.4 °C 34327.3 hPa WSW 5.1 km/h 5.1 km/h 62 % 0 mm
23:11 -4.1 °C -8.4 °C 34327.3 hPa WSW 6.3 km/h 6.3 km/h 62 % 0 mm
23:16 -4 °C -8.3 °C 34327.3 hPa WSW 6.3 km/h 6.3 km/h 62 % 0 mm
23:21 -3.9 °C -8.4 °C 34327.3 hPa WSW 11.9 km/h 11.9 km/h 61 % 0 mm
23:26 -3.9 °C -8.4 °C 34327.3 hPa West 9 km/h 9 km/h 61 % 0 mm
23:31 -4 °C -8.4 °C 34327.3 hPa SW 6.3 km/h 6.3 km/h 61 % 0 mm
23:36 -4.1 °C -8.4 °C 34327.3 hPa WSW 11.9 km/h 11.9 km/h 62 % 0 mm
23:41 -4.1 °C -8.3 °C 34327.3 hPa WSW 11.9 km/h 11.9 km/h 63 % 0 mm
23:46 -4.2 °C -8.2 °C 34327.3 hPa SSW 11.9 km/h 11.9 km/h 64 % 0 mm
23:51 -4.2 °C -8.1 °C 34327.3 hPa SW 8 km/h 8 km/h 65 % 0 mm
23:56 -4.3 °C -8.2 °C 34327.3 hPa South 9 km/h 9 km/h 65 % 0 mm
Meteo Sesrovires
Elogis d' Weather Underground - 1.5 mb

Guio original per  Jim McMurry - jmcmurry@mwt.net Adaptat per a la plantilla per  Wim van der Kuil - Leuven-Template.eu

Trobareu la nostra informacio del temps tambe a:

Weather Underground

AWEKAS